Airfield :
LOGIN :

Register | Disclaimer

   EN    FR    IT 

 










Legend :    VFR   Marginal VFR   IFR   Intensive IFR   Very Intensive IFR
Visi :
Ceiling :
>= 8 km
>= 3000ft
5 to 8 km
1000 to 3000 ft
1500m to 5 km
500 to 1000 ft
800 to 1500m
200 to 500 ft
< 800m
< 200 ft
Symbols :   Thunderstorms  Fog  Heavy snow  Heavy precipitations  Wind > 20 kt
SIGMETs :     Misc.  Thunderstorms  Icing  Turbulence  Mountain Waves  Volcanic Ashes






- Airport Elevation : 1079 ft


ETIK - Illesheim Air Base

CURRENT METAR :
  • 231041Z AUTO 30005KT 9999 SCT021 BKN038 OVC048 09/05 A3039 RMK AO2 SLP300 $

EXPIRED METARs :
  • 231026Z AUTO 28005KT 9999 BKN020 OVC048 09/05 A3039 RMK AO2 CIG 020V048 BKN V SCT SLP300 $
  • 230956Z AUTO 30005KT 9999 FEW021 OVC048 09/05 A3038 RMK AO2 SLP295 T00910047
  • 230936Z AUTO 28005KT 9999 SCT020 SCT025 OVC050 09/05 A3038 RMK AO2 SLP295 $
  • 230926Z AUTO 29007KT 9999 BKN020 BKN026 OVC050 09/05 A3038 RMK AO2 CIG 020V050 BKN020 V SCT SLP295 $
  • 230856Z AUTO 24007KT 9999 SCT049 09/05 A3037 RMK AO2 SLP293 T00890053 52018 $

TAF TAF ETIK
Valid from the 22 at 15:00 until the 23 at 20:00 UTC


221540Z 2215/2320 26010G20KT 9999 BKN030 520009 610505 QNH3008INS
BECMG 2223/2300 VRB06KT 9999 BKN015 610505 QNH3018INS
BECMG 2303/2304 VRB06KT 6000 BR OVC010 610505 QNH3032INS
BECMG 2309/2310 VRB06KT 9999 BKN020 610403 QNH3029INS TX10/2215Z TN04/2306Z LAST NO AMDS 2215 NEXT 2506



MET'MAP, your aeronautical weather chart ! - Copyright ORBIFLY December 2007 - Disclaimer

ORBIFLY MET'MAP TEAM :

Programming & Development : Alexandra Zaïnal
Concept & original design : Baudouin d'Aumeries
Assistance for programming : Marc-Olivier Méhu
Technical & hardware support : Manuel Goepfert

Contact : metmap@orbifly.com




SOURCES & CREDITS :

   NOAA